sensor_id;sensor_type;location;lat;lon;timestamp;pressure;altitude;pressure_sealevel;temperature;humidity
61676;BME280;47574;52.090;5.244;2023-07-31T00:00:20;100916.0;;;21.77;62.85
61676;BME280;47574;52.090;5.244;2023-07-31T00:01:57;100923.0;;;21.76;62.83
61676;BME280;47574;52.090;5.244;2023-07-31T00:03:34;100918.0;;;21.72;63.24
61676;BME280;47574;52.090;5.244;2023-07-31T00:06:47;100908.0;;;21.79;63.07
61676;BME280;47574;52.090;5.244;2023-07-31T00:08:24;100909.0;;;21.88;62.95
61676;BME280;47574;52.090;5.244;2023-07-31T00:10:01;100906.0;;;21.82;62.97
61676;BME280;47574;52.090;5.244;2023-07-31T00:11:38;100905.0;;;21.62;63.49
61676;BME280;47574;52.090;5.244;2023-07-31T00:14:51;100900.0;;;21.68;63.26
61676;BME280;47574;52.090;5.244;2023-07-31T00:16:28;100895.0;;;21.69;63.53
61676;BME280;47574;52.090;5.244;2023-07-31T00:18:05;100894.0;;;21.63;63.97
61676;BME280;47574;52.090;5.244;2023-07-31T00:21:20;100890.0;;;21.66;64.28
61676;BME280;47574;52.090;5.244;2023-07-31T00:22:57;100891.0;;;21.28;65.8
61676;BME280;47574;52.090;5.244;2023-07-31T00:24:34;100886.0;;;21.43;65.47
61676;BME280;47574;52.090;5.244;2023-07-31T00:26:10;100886.0;;;21.61;65.41
61676;BME280;47574;52.090;5.244;2023-07-31T00:29:23;100891.0;;;21.88;64.77
61676;BME280;47574;52.090;5.244;2023-07-31T00:31:01;100889.0;;;21.54;66.22
61676;BME280;47574;52.090;5.244;2023-07-31T00:32:38;100887.0;;;21.84;65.58
61676;BME280;47574;52.090;5.244;2023-07-31T00:35:51;100888.0;;;21.75;65.88
61676;BME280;47574;52.090;5.244;2023-07-31T00:37:28;100884.0;;;22.1;64.98
61676;BME280;47574;52.090;5.244;2023-07-31T00:39:04;100887.0;;;22.09;65.02
61676;BME280;47574;52.090;5.244;2023-07-31T00:42:18;100886.0;;;21.9;65.94
61676;BME280;47574;52.090;5.244;2023-07-31T00:43:54;100889.0;;;21.83;66.36
61676;BME280;47574;52.090;5.244;2023-07-31T00:45:30;100887.0;;;21.88;66.09
61676;BME280;47574;52.090;5.244;2023-07-31T00:47:08;100888.0;;;21.94;66.22
61676;BME280;47574;52.090;5.244;2023-07-31T00:50:24;100881.0;;;21.62;67.16
61676;BME280;47574;52.090;5.244;2023-07-31T00:52:01;100881.0;;;21.86;66.41
61676;BME280;47574;52.090;5.244;2023-07-31T00:53:37;100885.0;;;21.47;67.63
61676;BME280;47574;52.090;5.244;2023-07-31T00:56:52;100880.0;;;21.69;66.77
61676;BME280;47574;52.090;5.244;2023-07-31T00:58:31;100877.0;;;21.8;66.8
61676;BME280;47574;52.090;5.244;2023-07-31T01:00:08;100878.0;;;21.86;66.6
61676;BME280;47574;52.090;5.244;2023-07-31T01:01:46;100881.0;;;21.84;66.61
61676;BME280;47574;52.090;5.244;2023-07-31T01:05:01;100880.0;;;21.89;66.52
61676;BME280;47574;52.090;5.244;2023-07-31T01:06:43;100880.0;;;21.92;66.33
61676;BME280;47574;52.090;5.244;2023-07-31T01:08:32;100878.0;;;21.78;66.87
61676;BME280;47574;52.090;5.244;2023-07-31T01:10:27;100877.0;;;21.3;68.2
61676;BME280;47574;52.090;5.244;2023-07-31T01:13:50;100880.0;;;21.72;66.99
61676;BME280;47574;52.090;5.244;2023-07-31T01:15:27;100876.0;;;21.81;66.69
61676;BME280;47574;52.090;5.244;2023-07-31T01:17:04;100874.0;;;22.11;65.86
61676;BME280;47574;52.090;5.244;2023-07-31T01:18:41;100872.0;;;21.74;66.92
61676;BME280;47574;52.090;5.244;2023-07-31T01:22:20;100872.0;;;21.58;67.27
61676;BME280;47574;52.090;5.244;2023-07-31T01:24:19;100878.0;;;21.76;66.77
61676;BME280;47574;52.090;5.244;2023-07-31T01:26:26;100875.0;;;21.72;67.11
61676;BME280;47574;52.090;5.244;2023-07-31T01:28:10;100877.0;;;21.83;66.77
61676;BME280;47574;52.090;5.244;2023-07-31T01:29:54;100875.0;;;21.14;68.55
61676;BME280;47574;52.090;5.244;2023-07-31T01:31:36;100878.0;;;21.36;68.25
61676;BME280;47574;52.090;5.244;2023-07-31T01:33:16;100880.0;;;21.37;68.02
61676;BME280;47574;52.090;5.244;2023-07-31T01:36:31;100870.0;;;21.55;67.63
61676;BME280;47574;52.090;5.244;2023-07-31T01:38:08;100878.0;;;21.58;67.3
61676;BME280;47574;52.090;5.244;2023-07-31T01:39:45;100878.0;;;21.56;67.27
61676;BME280;47574;52.090;5.244;2023-07-31T01:42:57;100883.0;;;21.57;67.45
61676;BME280;47574;52.090;5.244;2023-07-31T01:44:35;100878.0;;;21.71;67.14
61676;BME280;47574;52.090;5.244;2023-07-31T01:46:11;100878.0;;;21.34;68.12
61676;BME280;47574;52.090;5.244;2023-07-31T01:47:48;100873.0;;;21.51;67.69
61676;BME280;47574;52.090;5.244;2023-07-31T01:51:01;100877.0;;;21.62;67.38
61676;BME280;47574;52.090;5.244;2023-07-31T01:52:38;100876.0;;;21.47;67.58
61676;BME280;47574;52.090;5.244;2023-07-31T01:54:16;100873.0;;;21.82;66.8
61676;BME280;47574;52.090;5.244;2023-07-31T01:57:28;100872.0;;;21.59;67.52
61676;BME280;47574;52.090;5.244;2023-07-31T01:59:04;100866.0;;;21.66;67.12
61676;BME280;47574;52.090;5.244;2023-07-31T02:00:41;100864.0;;;21.71;66.81
61676;BME280;47574;52.090;5.244;2023-07-31T02:03:55;100864.0;;;21.47;67.16
61676;BME280;47574;52.090;5.244;2023-07-31T02:05:32;100862.0;;;21.41;67.41
61676;BME280;47574;52.090;5.244;2023-07-31T02:07:09;100865.0;;;21.37;67.17
61676;BME280;47574;52.090;5.244;2023-07-31T02:08:45;100857.0;;;21.2;67.88
61676;BME280;47574;52.090;5.244;2023-07-31T02:12:01;100846.0;;;21.5;66.83
61676;BME280;47574;52.090;5.244;2023-07-31T02:13:37;100844.0;;;21.46;66.91
61676;BME280;47574;52.090;5.244;2023-07-31T02:15:13;100847.0;;;21.55;66.7
61676;BME280;47574;52.090;5.244;2023-07-31T02:18:26;100837.0;;;21.42;67.16
61676;BME280;47574;52.090;5.244;2023-07-31T02:20:04;100830.0;;;21.62;66.53
61676;BME280;47574;52.090;5.244;2023-07-31T02:21:42;100825.0;;;21.54;66.45
61676;BME280;47574;52.090;5.244;2023-07-31T02:24:55;100832.0;;;21.73;65.97
61676;BME280;47574;52.090;5.244;2023-07-31T02:26:31;100824.0;;;21.68;65.83
61676;BME280;47574;52.090;5.244;2023-07-31T02:28:07;100827.0;;;21.58;66.17
61676;BME280;47574;52.090;5.244;2023-07-31T02:29:45;100825.0;;;21.36;66.77
61676;BME280;47574;52.090;5.244;2023-07-31T02:32:58;100821.0;;;21.32;67.23
61676;BME280;47574;52.090;5.244;2023-07-31T02:34:35;100826.0;;;21.17;67.42
61676;BME280;47574;52.090;5.244;2023-07-31T02:36:11;100823.0;;;21.57;66.14
61676;BME280;47574;52.090;5.244;2023-07-31T02:39:26;100825.0;;;21.76;65.55
61676;BME280;47574;52.090;5.244;2023-07-31T02:41:03;100827.0;;;21.98;64.83
61676;BME280;47574;52.090;5.244;2023-07-31T02:42:39;100830.0;;;21.64;65.86
61676;BME280;47574;52.090;5.244;2023-07-31T02:44:16;100823.0;;;21.29;66.95
61676;BME280;47574;52.090;5.244;2023-07-31T02:47:29;100820.0;;;21.49;66.5
61676;BME280;47574;52.090;5.244;2023-07-31T02:49:06;100821.0;;;21.39;66.83
61676;BME280;47574;52.090;5.244;2023-07-31T02:50:42;100818.0;;;21.58;66.17
61676;BME280;47574;52.090;5.244;2023-07-31T02:53:55;100813.0;;;21.65;65.94
61676;BME280;47574;52.090;5.244;2023-07-31T02:55:31;100813.0;;;21.28;66.8
61676;BME280;47574;52.090;5.244;2023-07-31T02:57:08;100810.0;;;21.95;64.92
61676;BME280;47574;52.090;5.244;2023-07-31T03:00:21;100809.0;;;22.0;64.53
61676;BME280;47574;52.090;5.244;2023-07-31T03:01:58;100808.0;;;22.28;63.81
61676;BME280;47574;52.090;5.244;2023-07-31T03:03:35;100803.0;;;22.1;64.25
61676;BME280;47574;52.090;5.244;2023-07-31T03:05:12;100808.0;;;22.05;64.35
61676;BME280;47574;52.090;5.244;2023-07-31T03:08:26;100812.0;;;21.88;64.94
61676;BME280;47574;52.090;5.244;2023-07-31T03:10:03;100806.0;;;21.85;64.77
61676;BME280;47574;52.090;5.244;2023-07-31T03:11:40;100806.0;;;21.77;65.05
61676;BME280;47574;52.090;5.244;2023-07-31T03:14:54;100807.0;;;21.82;64.47
61676;BME280;47574;52.090;5.244;2023-07-31T03:16:31;100803.0;;;21.83;64.6
61676;BME280;47574;52.090;5.244;2023-07-31T03:18:08;100803.0;;;21.97;64.02
61676;BME280;47574;52.090;5.244;2023-07-31T03:21:21;100803.0;;;21.93;64.3
61676;BME280;47574;52.090;5.244;2023-07-31T03:22:58;100801.0;;;21.66;64.8
61676;BME280;47574;52.090;5.244;2023-07-31T03:24:34;100801.0;;;21.84;64.58
61676;BME280;47574;52.090;5.244;2023-07-31T03:26:11;100800.0;;;21.99;63.93
61676;BME280;47574;52.090;5.244;2023-07-31T03:29:26;100802.0;;;21.82;64.3
61676;BME280;47574;52.090;5.244;2023-07-31T03:31:02;100796.0;;;21.68;64.39
61676;BME280;47574;52.090;5.244;2023-07-31T03:32:38;100799.0;;;21.7;64.33
61676;BME280;47574;52.090;5.244;2023-07-31T03:35:52;100800.0;;;21.81;63.77
61676;BME280;47574;52.090;5.244;2023-07-31T03:37:29;100797.0;;;21.76;63.73
61676;BME280;47574;52.090;5.244;2023-07-31T03:39:06;100796.0;;;21.87;63.34
61676;BME280;47574;52.090;5.244;2023-07-31T03:42:19;100795.0;;;21.97;63.07
61676;BME280;47574;52.090;5.244;2023-07-31T03:43:56;100796.0;;;21.48;64.24
61676;BME280;47574;52.090;5.244;2023-07-31T03:45:34;100795.0;;;21.78;63.58
61676;BME280;47574;52.090;5.244;2023-07-31T03:47:11;100787.0;;;21.81;63.31
61676;BME280;47574;52.090;5.244;2023-07-31T03:50:24;100790.0;;;21.86;63.07
61676;BME280;47574;52.090;5.244;2023-07-31T03:52:00;100789.0;;;22.2;62.29
61676;BME280;47574;52.090;5.244;2023-07-31T03:53:37;100790.0;;;22.15;62.02
61676;BME280;47574;52.090;5.244;2023-07-31T03:56:51;100788.0;;;21.88;62.79
61676;BME280;47574;52.090;5.244;2023-07-31T03:58:27;100788.0;;;21.92;62.58
61676;BME280;47574;52.090;5.244;2023-07-31T04:00:06;100783.0;;;21.99;62.5
61676;BME280;47574;52.090;5.244;2023-07-31T04:01:43;100788.0;;;21.97;62.56
61676;BME280;47574;52.090;5.244;2023-07-31T04:04:56;100775.0;;;21.92;62.84
61676;BME280;47574;52.090;5.244;2023-07-31T04:06:32;100773.0;;;21.91;62.95
61676;BME280;47574;52.090;5.244;2023-07-31T04:08:09;100767.0;;;21.87;63.34
61676;BME280;47574;52.090;5.244;2023-07-31T04:11:23;100770.0;;;21.89;63.07
61676;BME280;47574;52.090;5.244;2023-07-31T04:13:00;100765.0;;;22.14;62.61
61676;BME280;47574;52.090;5.244;2023-07-31T04:14:37;100761.0;;;21.99;62.3
61676;BME280;47574;52.090;5.244;2023-07-31T04:17:50;100762.0;;;22.08;62.15
61676;BME280;47574;52.090;5.244;2023-07-31T04:19:26;100756.0;;;21.97;62.33
61676;BME280;47574;52.090;5.244;2023-07-31T04:21:03;100753.0;;;22.03;62.36
61676;BME280;47574;52.090;5.244;2023-07-31T04:22:40;100746.0;;;21.68;62.82
61676;BME280;47574;52.090;5.244;2023-07-31T04:25:54;100745.0;;;21.82;62.63
61676;BME280;47574;52.090;5.244;2023-07-31T04:27:31;100747.0;;;22.05;62.02
61676;BME280;47574;52.090;5.244;2023-07-31T04:29:08;100751.0;;;21.72;62.78
61676;BME280;47574;52.090;5.244;2023-07-31T04:32:23;100745.0;;;21.53;63.54
61676;BME280;47574;52.090;5.244;2023-07-31T04:33:59;100751.0;;;21.67;63.35
61676;BME280;47574;52.090;5.244;2023-07-31T04:35:36;100755.0;;;21.23;64.62
61676;BME280;47574;52.090;5.244;2023-07-31T04:37:12;100755.0;;;21.28;64.56
61676;BME280;47574;52.090;5.244;2023-07-31T04:40:27;100751.0;;;21.69;63.46
61676;BME280;47574;52.090;5.244;2023-07-31T04:42:04;100752.0;;;21.61;63.45
61676;BME280;47574;52.090;5.244;2023-07-31T04:43:40;100750.0;;;21.7;63.38
61676;BME280;47574;52.090;5.244;2023-07-31T04:46:54;100752.0;;;21.61;63.75
61676;BME280;47574;52.090;5.244;2023-07-31T04:48:31;100752.0;;;21.78;63.54
61676;BME280;47574;52.090;5.244;2023-07-31T04:50:08;100746.0;;;21.6;63.95
61676;BME280;47574;52.090;5.244;2023-07-31T04:53:21;100743.0;;;21.64;63.95
61676;BME280;47574;52.090;5.244;2023-07-31T04:54:58;100742.0;;;21.68;63.88
61676;BME280;47574;52.090;5.244;2023-07-31T04:56:35;100739.0;;;21.59;64.05
61676;BME280;47574;52.090;5.244;2023-07-31T04:58:12;100734.0;;;21.82;63.91
61676;BME280;47574;52.090;5.244;2023-07-31T05:01:25;100730.0;;;21.48;64.37
61676;BME280;47574;52.090;5.244;2023-07-31T05:03:01;100733.0;;;21.51;64.44
61676;BME280;47574;52.090;5.244;2023-07-31T05:04:38;100730.0;;;21.7;64.08
61676;BME280;47574;52.090;5.244;2023-07-31T05:07:53;100732.0;;;21.29;65.11
61676;BME280;47574;52.090;5.244;2023-07-31T05:09:30;100725.0;;;21.25;65.09
61676;BME280;47574;52.090;5.244;2023-07-31T05:11:07;100724.0;;;21.66;64.17
61676;BME280;47574;52.090;5.244;2023-07-31T05:14:21;100722.0;;;21.27;65.2
61676;BME280;47574;52.090;5.244;2023-07-31T05:15:58;100728.0;;;21.31;65.08
61676;BME280;47574;52.090;5.244;2023-07-31T05:17:34;100726.0;;;21.04;65.7
61676;BME280;47574;52.090;5.244;2023-07-31T05:19:12;100724.0;;;21.15;65.72
61676;BME280;47574;52.090;5.244;2023-07-31T05:22:26;100717.0;;;21.2;65.83
61676;BME280;47574;52.090;5.244;2023-07-31T05:24:03;100722.0;;;21.38;65.52
61676;BME280;47574;52.090;5.244;2023-07-31T05:25:41;100720.0;;;21.44;65.23
61676;BME280;47574;52.090;5.244;2023-07-31T05:28:56;100721.0;;;21.68;64.66
61676;BME280;47574;52.090;5.244;2023-07-31T05:30:32;100716.0;;;21.48;65.09
61676;BME280;47574;52.090;5.244;2023-07-31T05:32:08;100711.0;;;21.45;65.2
61676;BME280;47574;52.090;5.244;2023-07-31T05:33:45;100711.0;;;21.09;66.55
61676;BME280;47574;52.090;5.244;2023-07-31T05:36:57;100708.0;;;21.26;65.97
61676;BME280;47574;52.090;5.244;2023-07-31T05:38:34;100703.0;;;20.91;66.85
61676;BME280;47574;52.090;5.244;2023-07-31T05:40:11;100699.0;;;21.14;66.85
61676;BME280;47574;52.090;5.244;2023-07-31T05:43:26;100697.0;;;21.4;65.77
61676;BME280;47574;52.090;5.244;2023-07-31T05:45:04;100688.0;;;21.3;66.05
61676;BME280;47574;52.090;5.244;2023-07-31T05:46:41;100695.0;;;21.16;66.27
61676;BME280;47574;52.090;5.244;2023-07-31T05:49:55;100697.0;;;21.45;65.42
61676;BME280;47574;52.090;5.244;2023-07-31T05:51:32;100689.0;;;21.37;65.97
61676;BME280;47574;52.090;5.244;2023-07-31T05:53:08;100678.0;;;21.19;65.83
61676;BME280;47574;52.090;5.244;2023-07-31T05:54:45;100678.0;;;21.47;65.27
61676;BME280;47574;52.090;5.244;2023-07-31T05:57:59;100678.0;;;21.43;65.64
61676;BME280;47574;52.090;5.244;2023-07-31T05:59:37;100676.0;;;21.22;66.14
61676;BME280;47574;52.090;5.244;2023-07-31T06:01:13;100677.0;;;21.28;66.22
61676;BME280;47574;52.090;5.244;2023-07-31T06:04:26;100677.0;;;21.47;65.47
61676;BME280;47574;52.090;5.244;2023-07-31T06:06:02;100669.0;;;21.36;65.56
61676;BME280;47574;52.090;5.244;2023-07-31T06:07:40;100677.0;;;21.37;65.97
61676;BME280;47574;52.090;5.244;2023-07-31T06:09:17;100673.0;;;21.18;66.39
61676;BME280;47574;52.090;5.244;2023-07-31T06:12:29;100669.0;;;21.43;65.45
61676;BME280;47574;52.090;5.244;2023-07-31T06:14:06;100670.0;;;21.25;66.27
61676;BME280;47574;52.090;5.244;2023-07-31T06:15:42;100661.0;;;21.03;66.83
61676;BME280;47574;52.090;5.244;2023-07-31T06:18:57;100660.0;;;21.48;65.84
61676;BME280;47574;52.090;5.244;2023-07-31T06:20:34;100658.0;;;21.35;66.02
61676;BME280;47574;52.090;5.244;2023-07-31T06:22:11;100661.0;;;21.35;66.05
61676;BME280;47574;52.090;5.244;2023-07-31T06:25:24;100661.0;;;21.34;66.03
61676;BME280;47574;52.090;5.244;2023-07-31T06:27:01;100658.0;;;21.15;66.72
61676;BME280;47574;52.090;5.244;2023-07-31T06:28:38;100659.0;;;21.2;66.55
61676;BME280;47574;52.090;5.244;2023-07-31T06:30:15;100657.0;;;21.21;66.44
61676;BME280;47574;52.090;5.244;2023-07-31T06:33:29;100660.0;;;21.44;65.95
61676;BME280;47574;52.090;5.244;2023-07-31T06:35:07;100652.0;;;21.2;66.92
61676;BME280;47574;52.090;5.244;2023-07-31T06:36:43;100643.0;;;21.62;65.87
61676;BME280;47574;52.090;5.244;2023-07-31T06:40:01;100644.0;;;21.6;65.69
61676;BME280;47574;52.090;5.244;2023-07-31T06:41:38;100645.0;;;21.69;65.41
61676;BME280;47574;52.090;5.244;2023-07-31T06:43:15;100632.0;;;21.59;65.91
61676;BME280;47574;52.090;5.244;2023-07-31T06:44:52;100636.0;;;21.41;66.66
61676;BME280;47574;52.090;5.244;2023-07-31T06:48:05;100626.0;;;21.05;67.47
61676;BME280;47574;52.090;5.244;2023-07-31T06:49:43;100632.0;;;21.31;67.02
61676;BME280;47574;52.090;5.244;2023-07-31T06:51:19;100628.0;;;21.72;66.02
61676;BME280;47574;52.090;5.244;2023-07-31T06:54:32;100623.0;;;21.51;66.74
61676;BME280;47574;52.090;5.244;2023-07-31T06:56:08;100624.0;;;21.14;67.8
61676;BME280;47574;52.090;5.244;2023-07-31T06:57:46;100622.0;;;21.18;67.98
61676;BME280;47574;52.090;5.244;2023-07-31T07:01:00;100624.0;;;21.17;68.05
61676;BME280;47574;52.090;5.244;2023-07-31T07:02:37;100621.0;;;21.13;68.03
61676;BME280;47574;52.090;5.244;2023-07-31T07:04:14;100617.0;;;21.63;66.8
61676;BME280;47574;52.090;5.244;2023-07-31T07:05:51;100610.0;;;21.31;67.52
61676;BME280;47574;52.090;5.244;2023-07-31T07:09:05;100613.0;;;21.7;66.75
61676;BME280;47574;52.090;5.244;2023-07-31T07:10:42;100609.0;;;21.51;67.11
61676;BME280;47574;52.090;5.244;2023-07-31T07:12:18;100613.0;;;21.58;67.08
61676;BME280;47574;52.090;5.244;2023-07-31T07:15:33;100611.0;;;21.44;67.62
61676;BME280;47574;52.090;5.244;2023-07-31T07:17:09;100613.0;;;21.4;67.8
61676;BME280;47574;52.090;5.244;2023-07-31T07:18:46;100609.0;;;20.89;69.23
61676;BME280;47574;52.090;5.244;2023-07-31T07:22:01;100617.0;;;21.57;67.6
61676;BME280;47574;52.090;5.244;2023-07-31T07:23:38;100610.0;;;21.22;68.62
61676;BME280;47574;52.090;5.244;2023-07-31T07:25:14;100614.0;;;21.55;67.62
61676;BME280;47574;52.090;5.244;2023-07-31T07:26:51;100612.0;;;21.38;68.36
61676;BME280;47574;52.090;5.244;2023-07-31T07:30:05;100621.0;;;21.27;68.45
61676;BME280;47574;52.090;5.244;2023-07-31T07:31:43;100618.0;;;21.79;66.91
61676;BME280;47574;52.090;5.244;2023-07-31T07:33:20;100621.0;;;21.79;67.08
61676;BME280;47574;52.090;5.244;2023-07-31T07:36:33;100616.0;;;20.96;69.7
61676;BME280;47574;52.090;5.244;2023-07-31T07:38:11;100609.0;;;20.97;69.63
61676;BME280;47574;52.090;5.244;2023-07-31T07:39:49;100612.0;;;21.12;69.42
61676;BME280;47574;52.090;5.244;2023-07-31T07:41:26;100620.0;;;21.38;68.69
61676;BME280;47574;52.090;5.244;2023-07-31T07:44:39;100607.0;;;21.44;68.62
61676;BME280;47574;52.090;5.244;2023-07-31T07:46:16;100615.0;;;21.24;69.55
61676;BME280;47574;52.090;5.244;2023-07-31T07:47:52;100612.0;;;21.46;68.8
61676;BME280;47574;52.090;5.244;2023-07-31T07:51:08;100611.0;;;21.19;69.69
61676;BME280;47574;52.090;5.244;2023-07-31T07:52:45;100608.0;;;21.27;69.22
61676;BME280;47574;52.090;5.244;2023-07-31T07:54:22;100603.0;;;21.39;69.05
61676;BME280;47574;52.090;5.244;2023-07-31T07:57:36;100611.0;;;21.46;68.77
61676;BME280;47574;52.090;5.244;2023-07-31T07:59:12;100606.0;;;21.54;68.77
61676;BME280;47574;52.090;5.244;2023-07-31T08:00:50;100605.0;;;21.47;69.16
61676;BME280;47574;52.090;5.244;2023-07-31T08:02:26;100603.0;;;21.64;68.38
61676;BME280;47574;52.090;5.244;2023-07-31T08:05:40;100606.0;;;21.74;68.22
61676;BME280;47574;52.090;5.244;2023-07-31T08:07:16;100603.0;;;21.77;67.94
61676;BME280;47574;52.090;5.244;2023-07-31T08:08:54;100598.0;;;21.68;68.44
61676;BME280;47574;52.090;5.244;2023-07-31T08:12:08;100595.0;;;21.61;68.42
61676;BME280;47574;52.090;5.244;2023-07-31T08:13:45;100590.0;;;21.42;69.05
61676;BME280;47574;52.090;5.244;2023-07-31T08:15:22;100597.0;;;21.73;68.09
61676;BME280;47574;52.090;5.244;2023-07-31T08:17:00;100593.0;;;21.73;68.25
61676;BME280;47574;52.090;5.244;2023-07-31T08:20:15;100591.0;;;21.4;69.58
61676;BME280;47574;52.090;5.244;2023-07-31T08:21:52;100585.0;;;21.98;67.8
61676;BME280;47574;52.090;5.244;2023-07-31T08:23:29;100581.0;;;21.62;68.67
61676;BME280;47574;52.090;5.244;2023-07-31T08:26:43;100585.0;;;21.71;68.61
61676;BME280;47574;52.090;5.244;2023-07-31T08:28:20;100574.0;;;21.94;67.77
61676;BME280;47574;52.090;5.244;2023-07-31T08:29:57;100581.0;;;21.87;68.36
61676;BME280;47574;52.090;5.244;2023-07-31T08:31:35;100578.0;;;22.01;68.08
61676;BME280;47574;52.090;5.244;2023-07-31T08:34:48;100584.0;;;21.95;68.22
61676;BME280;47574;52.090;5.244;2023-07-31T08:36:25;100580.0;;;22.29;67.17
61676;BME280;47574;52.090;5.244;2023-07-31T08:38:02;100577.0;;;21.57;69.38
61676;BME280;47574;52.090;5.244;2023-07-31T08:41:17;100581.0;;;21.77;68.72
61676;BME280;47574;52.090;5.244;2023-07-31T08:42:55;100581.0;;;21.79;69.05
61676;BME280;47574;52.090;5.244;2023-07-31T08:44:32;100578.0;;;21.7;69.69
61676;BME280;47574;52.090;5.244;2023-07-31T08:47:49;100575.0;;;21.37;70.62
61676;BME280;47574;52.090;5.244;2023-07-31T08:49:27;100580.0;;;21.41;70.38
61676;BME280;47574;52.090;5.244;2023-07-31T08:51:06;100574.0;;;21.9;68.55
61676;BME280;47574;52.090;5.244;2023-07-31T08:52:43;100581.0;;;22.09;68.49
61676;BME280;47574;52.090;5.244;2023-07-31T08:56:01;100576.0;;;21.77;69.47
61676;BME280;47574;52.090;5.244;2023-07-31T08:57:39;100576.0;;;21.67;70.12
61676;BME280;47574;52.090;5.244;2023-07-31T08:59:19;100571.0;;;21.86;69.12
61676;BME280;47574;52.090;5.244;2023-07-31T09:01:01;100580.0;;;21.93;68.99
61676;BME280;47574;52.090;5.244;2023-07-31T09:04:28;100580.0;;;21.76;69.55
61676;BME280;47574;52.090;5.244;2023-07-31T09:06:06;100583.0;;;22.17;68.38
61676;BME280;47574;52.090;5.244;2023-07-31T09:07:44;100582.0;;;22.1;68.66
61676;BME280;47574;52.090;5.244;2023-07-31T09:09:23;100589.0;;;22.11;68.69
61676;BME280;47574;52.090;5.244;2023-07-31T09:12:37;100592.0;;;22.16;68.56
61676;BME280;47574;52.090;5.244;2023-07-31T09:14:16;100584.0;;;22.07;68.83
61676;BME280;47574;52.090;5.244;2023-07-31T09:15:54;100584.0;;;21.85;69.56
61676;BME280;47574;52.090;5.244;2023-07-31T09:19:10;100580.0;;;22.32;68.39
61676;BME280;47574;52.090;5.244;2023-07-31T09:21:00;100580.0;;;22.61;67.41
61676;BME280;47574;52.090;5.244;2023-07-31T09:22:36;100577.0;;;22.14;68.98
61676;BME280;47574;52.090;5.244;2023-07-31T09:24:24;100575.0;;;22.11;68.73
61676;BME280;47574;52.090;5.244;2023-07-31T09:26:01;100572.0;;;22.13;69.16
61676;BME280;47574;52.090;5.244;2023-07-31T09:29:23;100570.0;;;22.21;68.49
61676;BME280;47574;52.090;5.244;2023-07-31T09:31:01;100569.0;;;22.47;68.12
61676;BME280;47574;52.090;5.244;2023-07-31T09:32:38;100567.0;;;22.37;68.55
61676;BME280;47574;52.090;5.244;2023-07-31T09:35:52;100559.0;;;22.54;68.2
61676;BME280;47574;52.090;5.244;2023-07-31T09:37:29;100566.0;;;22.3;68.69
61676;BME280;47574;52.090;5.244;2023-07-31T09:39:09;100563.0;;;22.11;69.03
61676;BME280;47574;52.090;5.244;2023-07-31T09:40:47;100561.0;;;22.09;69.3
61676;BME280;47574;52.090;5.244;2023-07-31T09:44:03;100567.0;;;22.34;68.91
61676;BME280;47574;52.090;5.244;2023-07-31T09:45:41;100559.0;;;22.06;69.56
61676;BME280;47574;52.090;5.244;2023-07-31T09:47:23;100561.0;;;22.21;69.2
61676;BME280;47574;52.090;5.244;2023-07-31T09:49:10;100566.0;;;22.33;69.33
61676;BME280;47574;52.090;5.244;2023-07-31T09:52:26;100562.0;;;22.57;68.44
61676;BME280;47574;52.090;5.244;2023-07-31T09:54:02;100560.0;;;22.53;68.48
61676;BME280;47574;52.090;5.244;2023-07-31T09:55:41;100563.0;;;22.67;68.12
61676;BME280;47574;52.090;5.244;2023-07-31T09:57:20;100568.0;;;22.26;69.12
61676;BME280;47574;52.090;5.244;2023-07-31T10:00:36;100566.0;;;22.27;69.23
61676;BME280;47574;52.090;5.244;2023-07-31T10:02:15;100564.0;;;22.58;68.33
61676;BME280;47574;52.090;5.244;2023-07-31T10:03:57;100567.0;;;22.67;68.12
61676;BME280;47574;52.090;5.244;2023-07-31T10:07:17;100559.0;;;22.56;68.44
61676;BME280;47574;52.090;5.244;2023-07-31T10:08:54;100557.0;;;22.67;67.87
61676;BME280;47574;52.090;5.244;2023-07-31T10:10:32;100558.0;;;22.48;68.44
61676;BME280;47574;52.090;5.244;2023-07-31T10:12:14;100561.0;;;22.61;68.11
61676;BME280;47574;52.090;5.244;2023-07-31T10:15:32;100564.0;;;22.67;67.94
61676;BME280;47574;52.090;5.244;2023-07-31T10:17:10;100561.0;;;22.59;68.0
61676;BME280;47574;52.090;5.244;2023-07-31T10:18:49;100560.0;;;22.84;67.33
61676;BME280;47574;52.090;5.244;2023-07-31T10:20:26;100566.0;;;22.72;67.74
61676;BME280;47574;52.090;5.244;2023-07-31T10:23:44;100568.0;;;22.46;68.36
61676;BME280;47574;52.090;5.244;2023-07-31T10:25:21;100564.0;;;22.8;67.3
61676;BME280;47574;52.090;5.244;2023-07-31T10:27:00;100566.0;;;22.49;68.47
61676;BME280;47574;52.090;5.244;2023-07-31T10:30:17;100568.0;;;22.2;69.28
61676;BME280;47574;52.090;5.244;2023-07-31T10:31:57;100565.0;;;22.51;68.55
61676;BME280;47574;52.090;5.244;2023-07-31T10:33:34;100557.0;;;22.2;69.08
61676;BME280;47574;52.090;5.244;2023-07-31T10:35:11;100560.0;;;22.47;68.61
61676;BME280;47574;52.090;5.244;2023-07-31T10:38:25;100555.0;;;22.63;67.91
61676;BME280;47574;52.090;5.244;2023-07-31T10:40:03;100555.0;;;21.86;70.3
61676;BME280;47574;52.090;5.244;2023-07-31T10:41:40;100562.0;;;22.26;69.39
61676;BME280;47574;52.090;5.244;2023-07-31T10:45:04;100558.0;;;22.54;68.53
61676;BME280;47574;52.090;5.244;2023-07-31T10:46:42;100560.0;;;22.73;67.66
61676;BME280;47574;52.090;5.244;2023-07-31T10:48:21;100556.0;;;22.62;68.28
61676;BME280;47574;52.090;5.244;2023-07-31T10:50:17;100561.0;;;22.79;67.75
61676;BME280;47574;52.090;5.244;2023-07-31T10:52:10;100556.0;;;22.85;67.61
61676;BME280;47574;52.090;5.244;2023-07-31T10:55:27;100561.0;;;22.69;67.94
61676;BME280;47574;52.090;5.244;2023-07-31T10:57:19;100562.0;;;22.64;68.27
61676;BME280;47574;52.090;5.244;2023-07-31T10:59:01;100560.0;;;22.55;68.67
61676;BME280;47574;52.090;5.244;2023-07-31T11:00:39;100557.0;;;22.82;67.84
61676;BME280;47574;52.090;5.244;2023-07-31T11:02:24;100557.0;;;22.85;67.7
61676;BME280;47574;52.090;5.244;2023-07-31T11:05:50;100557.0;;;22.78;68.02